createdAt,value
2022-10-24T00:01:25.184Z,3.30
2022-10-24T00:06:26.461Z,2.83
2022-10-24T00:11:28.101Z,3.37
2022-10-24T00:16:29.469Z,3.33
2022-10-24T00:21:30.699Z,4.15
2022-10-24T00:26:32.085Z,3.00
2022-10-24T00:31:33.421Z,6.60
2022-10-24T00:36:34.656Z,3.85
2022-10-24T00:41:37.409Z,4.10
2022-10-24T00:46:39.264Z,2.67
2022-10-24T00:51:41.211Z,3.83
2022-10-24T00:56:49.206Z,2.70
2022-10-24T01:01:50.599Z,2.70
2022-10-24T01:07:04.784Z,2.90
2022-10-24T01:12:20.138Z,2.93
2022-10-24T01:17:21.353Z,2.77
2022-10-24T01:22:24.416Z,3.25
2022-10-24T01:27:34.738Z,2.90
2022-10-24T01:32:38.805Z,2.43
2022-10-24T01:37:47.513Z,2.80
2022-10-24T01:42:49.569Z,2.93
2022-10-24T01:47:53.318Z,2.43
2022-10-24T01:52:55.402Z,3.47
2022-10-24T01:57:56.630Z,2.70
2022-10-24T02:03:02.403Z,2.60
2022-10-24T02:08:08.789Z,3.30
2022-10-24T02:13:22.768Z,2.67
2022-10-24T02:18:24.194Z,5.47
2022-10-24T02:23:27.189Z,3.13
2022-10-24T02:28:34.654Z,3.97
2022-10-24T02:33:36.110Z,3.58
2022-10-24T02:38:38.919Z,4.15
2022-10-24T02:43:40.837Z,3.20
2022-10-24T02:48:44.380Z,3.30
2022-10-24T02:53:46.580Z,3.38
2022-10-24T02:58:47.835Z,3.30
2022-10-24T03:03:49.428Z,5.47
2022-10-24T03:08:50.669Z,5.80
2022-10-24T03:13:51.892Z,4.50
2022-10-24T03:18:53.245Z,4.30
2022-10-24T03:23:54.548Z,3.00
2022-10-24T03:28:55.849Z,2.60
2022-10-24T03:33:57.371Z,3.33
2022-10-24T03:38:58.582Z,2.77
2022-10-24T03:43:59.790Z,3.10
2022-10-24T03:54:03.253Z,2.70
2022-10-24T03:59:04.484Z,2.70
2022-10-24T04:04:05.784Z,3.47
2022-10-24T04:09:07.059Z,2.70
2022-10-24T04:14:09.594Z,2.50
2022-10-24T04:19:11.170Z,2.80
2022-10-24T04:24:12.433Z,2.67
2022-10-24T04:29:13.703Z,2.97
2022-10-24T04:34:14.948Z,3.33
2022-10-24T04:39:16.167Z,2.90
2022-10-24T04:44:17.444Z,3.03
2022-10-24T04:49:19.100Z,3.13
2022-10-24T04:54:20.418Z,3.43
2022-10-24T04:59:21.651Z,3.83
2022-10-24T05:04:22.918Z,3.30
2022-10-24T05:09:24.241Z,3.10
2022-10-24T05:14:25.496Z,3.20
2022-10-24T05:19:26.768Z,3.10
2022-10-24T05:24:28.018Z,3.60
2022-10-24T05:29:29.280Z,3.15
2022-10-24T05:34:30.599Z,3.00
2022-10-24T05:39:31.844Z,3.60
2022-10-24T05:44:33.291Z,4.25
2022-10-24T05:49:34.650Z,4.15
2022-10-24T05:54:48.469Z,3.73
2022-10-24T05:59:57.150Z,3.88
2022-10-24T06:04:58.751Z,3.50
2022-10-24T06:10:00.026Z,3.47
2022-10-24T06:15:01.377Z,4.65
2022-10-24T06:20:02.738Z,3.80
2022-10-24T06:25:04.320Z,4.30
2022-10-24T06:30:06.377Z,3.70
2022-10-24T06:35:08.978Z,3.63
2022-10-24T06:40:10.476Z,4.07
2022-10-24T06:45:11.898Z,3.70
2022-10-24T06:50:13.238Z,6.88
2022-10-24T06:55:14.487Z,6.17
2022-10-24T07:00:15.974Z,4.18
2022-10-24T07:05:17.364Z,3.67
2022-10-24T07:10:19.090Z,3.03
2022-10-24T07:15:20.313Z,2.65
2022-10-24T07:20:21.612Z,2.55
2022-10-24T07:25:22.825Z,3.87
2022-10-24T07:30:24.206Z,2.45
2022-10-24T07:35:25.616Z,2.50
2022-10-24T07:40:26.861Z,2.50
2022-10-24T07:45:29.798Z,2.30
2022-10-24T07:50:31.062Z,2.45
2022-10-24T07:55:32.297Z,2.37
2022-10-24T08:00:33.667Z,2.10
2022-10-24T08:05:34.942Z,2.42
2022-10-24T08:10:36.336Z,2.53
2022-10-24T08:15:37.692Z,1.90
2022-10-24T08:20:39.134Z,1.98
2022-10-24T08:25:41.333Z,1.77
2022-10-24T08:30:42.719Z,1.65
2022-10-24T08:35:43.987Z,2.20
2022-10-24T08:40:48.582Z,2.23
2022-10-24T08:45:56.818Z,2.20
2022-10-24T08:51:10.877Z,2.13
2022-10-24T08:56:12.675Z,2.05
2022-10-24T09:01:25.216Z,1.97
2022-10-24T09:06:27.815Z,2.60
2022-10-24T09:11:39.988Z,2.42
2022-10-24T09:16:42.915Z,2.30
2022-10-24T09:21:44.669Z,2.13
2022-10-24T09:26:45.974Z,10.27
2022-10-24T09:31:49.770Z,2.87
2022-10-24T09:36:51.351Z,2.17
2022-10-24T09:41:52.836Z,2.75
2022-10-24T09:46:54.468Z,2.80
2022-10-24T09:52:00.390Z,2.20
2022-10-24T09:57:01.701Z,2.42
2022-10-24T10:02:14.228Z,2.22
2022-10-24T10:07:19.814Z,2.53
2022-10-24T10:12:41.777Z,2.55
2022-10-24T10:17:53.686Z,3.72
2022-10-24T10:22:54.923Z,3.07
2022-10-24T10:27:59.795Z,2.40
2022-10-24T10:33:12.492Z,2.72
2022-10-24T10:38:24.997Z,2.42
2022-10-24T10:43:34.759Z,2.30
2022-10-24T10:48:51.060Z,2.83
2022-10-24T10:53:52.281Z,2.83
2022-10-24T10:59:12.266Z,2.57
2022-10-24T11:04:26.348Z,2.42
2022-10-24T11:09:29.641Z,2.30
2022-10-24T11:14:33.490Z,2.60
2022-10-24T11:19:40.961Z,2.87
2022-10-24T11:24:46.958Z,2.70
2022-10-24T11:29:54.285Z,3.28
2022-10-24T11:35:01.872Z,2.30
2022-10-24T11:40:06.367Z,2.40
2022-10-24T11:45:18.943Z,2.28
2022-10-24T11:50:26.657Z,2.33
2022-10-24T11:55:37.396Z,1.92
2022-10-24T12:00:54.477Z,2.58
2022-10-24T12:06:04.656Z,2.57
2022-10-24T12:11:24.936Z,2.33
2022-10-24T12:16:26.171Z,2.58
2022-10-24T12:21:34.452Z,2.40
2022-10-24T12:26:35.864Z,2.40
2022-10-24T12:31:38.130Z,2.20
2022-10-24T12:36:58.220Z,2.55
2022-10-24T12:41:59.548Z,2.50
2022-10-24T12:47:01.595Z,2.92
2022-10-24T12:52:22.887Z,2.40
2022-10-24T12:57:27.568Z,2.70
2022-10-24T13:02:31.964Z,2.60
2022-10-24T13:07:50.832Z,3.20
2022-10-24T13:12:55.543Z,3.58
2022-10-24T13:18:02.312Z,2.60
2022-10-24T13:23:11.549Z,3.42
2022-10-24T13:28:25.105Z,2.70
2022-10-24T13:33:36.373Z,3.40
2022-10-24T13:38:41.662Z,2.83
2022-10-24T13:43:46.159Z,3.00
2022-10-24T13:48:47.834Z,3.13
2022-10-24T13:53:52.095Z,2.40
2022-10-24T13:58:53.362Z,2.90
2022-10-24T14:03:55.220Z,3.38
2022-10-24T14:09:05.797Z,2.47
2022-10-24T14:14:26.498Z,4.50
2022-10-24T14:19:31.774Z,5.00
2022-10-24T14:24:43.000Z,2.50
2022-10-24T14:29:51.457Z,5.10
2022-10-24T14:34:53.929Z,3.03
2022-10-24T14:39:55.854Z,4.40
2022-10-24T14:44:58.438Z,3.77
2022-10-24T14:49:59.905Z,3.08
2022-10-24T14:55:03.086Z,3.00
2022-10-24T15:00:09.601Z,2.67
2022-10-24T15:05:19.697Z,3.55
2022-10-24T15:10:41.283Z,3.67
2022-10-24T15:15:53.886Z,2.47
2022-10-24T15:21:02.875Z,3.90
2022-10-24T15:26:04.218Z,3.92
2022-10-24T15:31:09.106Z,3.97
2022-10-24T15:36:17.112Z,3.10
2022-10-24T15:41:18.447Z,2.80
2022-10-24T15:46:19.737Z,3.08
2022-10-24T15:51:23.112Z,2.70
2022-10-24T15:56:24.671Z,2.60
2022-10-24T16:01:28.450Z,3.03
2022-10-24T16:06:29.787Z,3.93
2022-10-24T16:11:32.025Z,4.20
2022-10-24T16:16:33.324Z,4.43
2022-10-24T16:21:34.570Z,3.73
2022-10-24T16:26:36.290Z,4.80
2022-10-24T16:31:37.630Z,4.00
2022-10-24T16:36:40.922Z,3.60
2022-10-24T16:41:45.855Z,3.67
2022-10-24T16:46:47.246Z,3.70
2022-10-24T16:51:48.529Z,4.50
2022-10-24T16:56:53.782Z,3.80
2022-10-24T17:01:55.547Z,4.50
2022-10-24T17:06:57.053Z,4.68
2022-10-24T17:12:00.029Z,4.50
2022-10-24T17:17:01.287Z,5.07
2022-10-24T17:22:03.082Z,4.03
2022-10-24T17:27:04.477Z,3.40
2022-10-24T17:32:06.116Z,2.50
2022-10-24T17:37:16.816Z,2.70
2022-10-24T17:42:18.780Z,2.40
2022-10-24T17:47:20.121Z,1.83
2022-10-24T17:52:22.633Z,1.40
2022-10-24T17:57:24.016Z,1.25
2022-10-24T18:02:25.422Z,1.20
2022-10-24T18:07:26.762Z,1.10
2022-10-24T18:12:28.041Z,1.00
2022-10-24T18:17:29.349Z,1.20
2022-10-24T18:22:31.404Z,1.33
2022-10-24T18:27:33.176Z,1.52
2022-10-24T18:32:34.804Z,1.83
2022-10-24T18:37:36.258Z,1.70
2022-10-24T18:42:38.332Z,1.50
2022-10-24T18:47:39.883Z,1.57
2022-10-24T18:52:45.777Z,1.80
2022-10-24T18:57:48.069Z,1.38
2022-10-24T19:03:01.915Z,2.00
2022-10-24T19:08:03.279Z,1.38
2022-10-24T19:13:04.653Z,1.10
2022-10-24T19:18:07.390Z,1.20
2022-10-24T19:23:12.143Z,1.80
2022-10-24T19:28:17.202Z,4.75
2022-10-24T19:33:18.714Z,2.07
2022-10-24T19:38:20.515Z,2.10
2022-10-24T19:43:22.642Z,1.70
2022-10-24T19:48:23.926Z,1.20
2022-10-24T19:53:25.189Z,0.90
2022-10-24T19:58:26.458Z,1.95
2022-10-24T20:03:27.717Z,1.00
2022-10-24T20:08:28.975Z,1.00
2022-10-24T20:13:30.298Z,1.00
2022-10-24T20:18:32.306Z,1.10
2022-10-24T20:23:33.673Z,1.33
2022-10-24T20:28:36.239Z,1.13
2022-10-24T20:33:37.488Z,0.90
2022-10-24T20:38:38.819Z,1.10
2022-10-24T20:43:40.175Z,1.20
2022-10-24T20:48:41.459Z,0.93
2022-10-24T20:53:43.357Z,0.70
2022-10-24T20:58:44.920Z,0.77
2022-10-24T21:03:46.640Z,0.77
2022-10-24T21:08:48.635Z,1.20
2022-10-24T21:13:51.596Z,1.00
2022-10-24T21:18:53.150Z,0.90
2022-10-24T21:23:55.976Z,0.60
2022-10-24T21:29:08.468Z,0.88
2022-10-24T21:34:19.020Z,1.00
2022-10-24T21:39:20.324Z,0.80
2022-10-24T21:44:23.257Z,1.30
2022-10-24T21:49:25.542Z,0.97
2022-10-24T21:54:28.543Z,0.90
2022-10-24T21:59:29.816Z,0.98
2022-10-24T22:04:31.058Z,0.95
2022-10-24T22:09:32.670Z,0.87
2022-10-24T22:14:33.918Z,1.08
2022-10-24T22:19:35.162Z,1.10
2022-10-24T22:24:36.413Z,0.70
2022-10-24T22:29:37.681Z,0.80
2022-10-24T22:34:39.181Z,2.40
2022-10-24T22:39:40.634Z,0.90
2022-10-24T22:44:42.057Z,1.50
2022-10-24T22:50:01.834Z,0.97
2022-10-24T22:55:04.037Z,1.10
2022-10-24T23:00:06.153Z,1.15
2022-10-24T23:05:07.522Z,1.27
2022-10-24T23:10:10.803Z,1.55
2022-10-24T23:15:12.880Z,1.20
2022-10-24T23:20:29.315Z,1.30
2022-10-24T23:25:32.008Z,1.30
2022-10-24T23:30:33.385Z,1.13
2022-10-24T23:35:35.662Z,1.20
2022-10-24T23:40:37.125Z,1.20
2022-10-24T23:45:50.031Z,1.63
2022-10-24T23:50:51.275Z,1.13
2022-10-24T23:55:52.721Z,1.40
